sensor_id;sensor_type;location;lat;lon;timestamp;temperature;humidity
9847;DHT22;68671;50.084;8.794;2023-04-15T00:00:39;12.00;84.60
9847;DHT22;68671;50.084;8.794;2023-04-15T00:03:06;11.90;84.60
9847;DHT22;68671;50.084;8.794;2023-04-15T00:05:34;11.90;84.80
9847;DHT22;68671;50.084;8.794;2023-04-15T00:08:01;11.90;85.00
9847;DHT22;68671;50.084;8.794;2023-04-15T00:10:30;11.80;85.30
9847;DHT22;68671;50.084;8.794;2023-04-15T00:12:57;11.80;85.50
9847;DHT22;68671;50.084;8.794;2023-04-15T00:15:24;11.80;85.80
9847;DHT22;68671;50.084;8.794;2023-04-15T00:17:51;11.80;85.90
9847;DHT22;68671;50.084;8.794;2023-04-15T00:20:18;11.70;86.10
9847;DHT22;68671;50.084;8.794;2023-04-15T00:22:45;11.70;86.60
9847;DHT22;68671;50.084;8.794;2023-04-15T00:25:13;11.60;86.90
9847;DHT22;68671;50.084;8.794;2023-04-15T00:27:41;11.60;87.30
9847;DHT22;68671;50.084;8.794;2023-04-15T00:30:09;11.50;88.00
9847;DHT22;68671;50.084;8.794;2023-04-15T00:32:36;11.40;88.50
9847;DHT22;68671;50.084;8.794;2023-04-15T00:35:03;11.30;89.10
9847;DHT22;68671;50.084;8.794;2023-04-15T00:37:30;11.30;89.70
9847;DHT22;68671;50.084;8.794;2023-04-15T00:39:59;11.30;90.10
9847;DHT22;68671;50.084;8.794;2023-04-15T00:42:27;11.40;90.40
9847;DHT22;68671;50.084;8.794;2023-04-15T00:44:59;11.40;90.50
9847;DHT22;68671;50.084;8.794;2023-04-15T00:47:29;11.40;90.70
9847;DHT22;68671;50.084;8.794;2023-04-15T00:49:57;11.40;90.80
9847;DHT22;68671;50.084;8.794;2023-04-15T00:52:24;11.40;90.80
9847;DHT22;68671;50.084;8.794;2023-04-15T00:55:06;11.30;90.80
9847;DHT22;68671;50.084;8.794;2023-04-15T00:57:36;11.30;91.00
9847;DHT22;68671;50.084;8.794;2023-04-15T01:00:07;11.30;91.10
9847;DHT22;68671;50.084;8.794;2023-04-15T01:02:36;11.40;91.10
9847;DHT22;68671;50.084;8.794;2023-04-15T01:05:26;11.40;91.20
9847;DHT22;68671;50.084;8.794;2023-04-15T01:07:54;11.50;91.20
9847;DHT22;68671;50.084;8.794;2023-04-15T01:10:21;11.60;91.30
9847;DHT22;68671;50.084;8.794;2023-04-15T01:12:48;11.60;91.20
9847;DHT22;68671;50.084;8.794;2023-04-15T01:15:17;11.60;91.20
9847;DHT22;68671;50.084;8.794;2023-04-15T01:17:45;11.60;91.30
9847;DHT22;68671;50.084;8.794;2023-04-15T01:20:12;11.60;91.40
9847;DHT22;68671;50.084;8.794;2023-04-15T01:22:41;11.60;91.30
9847;DHT22;68671;50.084;8.794;2023-04-15T01:25:10;11.70;91.40
9847;DHT22;68671;50.084;8.794;2023-04-15T01:27:39;11.60;91.40
9847;DHT22;68671;50.084;8.794;2023-04-15T01:30:08;11.50;91.60
9847;DHT22;68671;50.084;8.794;2023-04-15T01:32:35;11.50;91.70
9847;DHT22;68671;50.084;8.794;2023-04-15T01:35:02;11.40;91.70
9847;DHT22;68671;50.084;8.794;2023-04-15T01:37:30;11.50;91.80
9847;DHT22;68671;50.084;8.794;2023-04-15T01:39:57;11.40;91.80
9847;DHT22;68671;50.084;8.794;2023-04-15T01:42:24;11.40;91.90
9847;DHT22;68671;50.084;8.794;2023-04-15T01:44:53;11.30;92.00
9847;DHT22;68671;50.084;8.794;2023-04-15T01:47:20;11.30;92.20
9847;DHT22;68671;50.084;8.794;2023-04-15T01:49:47;11.30;92.40
9847;DHT22;68671;50.084;8.794;2023-04-15T01:52:15;11.30;92.50
9847;DHT22;68671;50.084;8.794;2023-04-15T01:54:41;11.30;92.60
9847;DHT22;68671;50.084;8.794;2023-04-15T01:57:09;11.30;92.70
9847;DHT22;68671;50.084;8.794;2023-04-15T01:59:36;11.30;92.80
9847;DHT22;68671;50.084;8.794;2023-04-15T02:02:04;11.30;92.90
9847;DHT22;68671;50.084;8.794;2023-04-15T02:04:31;11.10;93.00
9847;DHT22;68671;50.084;8.794;2023-04-15T02:06:58;11.10;93.20
9847;DHT22;68671;50.084;8.794;2023-04-15T02:09:26;11.10;93.90
9847;DHT22;68671;50.084;8.794;2023-04-15T02:11:53;10.90;93.80
9847;DHT22;68671;50.084;8.794;2023-04-15T02:14:20;10.80;94.20
9847;DHT22;68671;50.084;8.794;2023-04-15T02:16:47;10.70;94.60
9847;DHT22;68671;50.084;8.794;2023-04-15T02:19:15;10.60;95.00
9847;DHT22;68671;50.084;8.794;2023-04-15T02:21:42;10.50;95.50
9847;DHT22;68671;50.084;8.794;2023-04-15T02:24:09;10.50;95.90
9847;DHT22;68671;50.084;8.794;2023-04-15T02:26:36;10.50;96.30
9847;DHT22;68671;50.084;8.794;2023-04-15T02:29:04;10.40;96.70
9847;DHT22;68671;50.084;8.794;2023-04-15T02:31:31;10.40;97.10
9847;DHT22;68671;50.084;8.794;2023-04-15T02:34:01;10.40;97.60
9847;DHT22;68671;50.084;8.794;2023-04-15T02:36:30;10.40;97.80
9847;DHT22;68671;50.084;8.794;2023-04-15T02:38:59;10.30;98.10
9847;DHT22;68671;50.084;8.794;2023-04-15T02:41:26;10.40;98.30
9847;DHT22;68671;50.084;8.794;2023-04-15T02:43:53;10.30;98.50
9847;DHT22;68671;50.084;8.794;2023-04-15T02:46:20;10.30;98.90
9847;DHT22;68671;50.084;8.794;2023-04-15T02:48:47;10.20;99.10
9847;DHT22;68671;50.084;8.794;2023-04-15T02:51:16;10.20;99.50
9847;DHT22;68671;50.084;8.794;2023-04-15T02:53:46;10.30;99.80
9847;DHT22;68671;50.084;8.794;2023-04-15T02:56:13;10.10;99.90
9847;DHT22;68671;50.084;8.794;2023-04-15T02:58:42;10.10;99.90
9847;DHT22;68671;50.084;8.794;2023-04-15T03:01:10;10.10;99.90
9847;DHT22;68671;50.084;8.794;2023-04-15T03:03:37;10.10;99.90
9847;DHT22;68671;50.084;8.794;2023-04-15T03:06:04;10.10;99.90
9847;DHT22;68671;50.084;8.794;2023-04-15T03:08:31;10.10;99.90
9847;DHT22;68671;50.084;8.794;2023-04-15T03:10:59;10.20;99.90
9847;DHT22;68671;50.084;8.794;2023-04-15T03:13:27;10.20;99.90
9847;DHT22;68671;50.084;8.794;2023-04-15T03:15:54;10.20;99.90
9847;DHT22;68671;50.084;8.794;2023-04-15T03:18:21;10.20;99.90
9847;DHT22;68671;50.084;8.794;2023-04-15T03:20:48;10.20;99.90
9847;DHT22;68671;50.084;8.794;2023-04-15T03:23:15;10.20;99.90
9847;DHT22;68671;50.084;8.794;2023-04-15T03:25:43;10.10;99.90
9847;DHT22;68671;50.084;8.794;2023-04-15T03:28:12;10.10;99.90
9847;DHT22;68671;50.084;8.794;2023-04-15T03:30:39;10.00;99.90
9847;DHT22;68671;50.084;8.794;2023-04-15T03:33:06;10.00;99.90
9847;DHT22;68671;50.084;8.794;2023-04-15T03:35:33;9.80;99.90
9847;DHT22;68671;50.084;8.794;2023-04-15T03:38:00;9.80;99.90
9847;DHT22;68671;50.084;8.794;2023-04-15T03:40:27;9.80;99.90
9847;DHT22;68671;50.084;8.794;2023-04-15T03:42:54;9.80;99.90
9847;DHT22;68671;50.084;8.794;2023-04-15T03:45:23;9.80;99.90
9847;DHT22;68671;50.084;8.794;2023-04-15T03:47:49;9.80;99.90
9847;DHT22;68671;50.084;8.794;2023-04-15T03:50:17;9.80;99.90
9847;DHT22;68671;50.084;8.794;2023-04-15T03:52:44;9.80;99.90
9847;DHT22;68671;50.084;8.794;2023-04-15T03:55:11;9.80;99.90
9847;DHT22;68671;50.084;8.794;2023-04-15T03:57:38;9.80;99.90
9847;DHT22;68671;50.084;8.794;2023-04-15T04:00:09;9.70;99.90
9847;DHT22;68671;50.084;8.794;2023-04-15T04:02:38;9.70;99.90
9847;DHT22;68671;50.084;8.794;2023-04-15T04:05:05;9.70;99.90
9847;DHT22;68671;50.084;8.794;2023-04-15T04:07:32;9.60;99.90
9847;DHT22;68671;50.084;8.794;2023-04-15T04:13:33;9.50;99.90
9847;DHT22;68671;50.084;8.794;2023-04-15T04:25:09;9.40;99.90
9847;DHT22;68671;50.084;8.794;2023-04-15T04:37:51;9.70;99.90
9847;DHT22;68671;50.084;8.794;2023-04-15T04:39:46;9.60;99.90
9847;DHT22;68671;50.084;8.794;2023-04-15T04:42:15;9.60;99.90
9847;DHT22;68671;50.084;8.794;2023-04-15T04:44:42;9.60;99.90
9847;DHT22;68671;50.084;8.794;2023-04-15T04:47:09;9.60;99.90
9847;DHT22;68671;50.084;8.794;2023-04-15T04:49:36;9.60;99.90
9847;DHT22;68671;50.084;8.794;2023-04-15T04:56:40;9.50;99.90
9847;DHT22;68671;50.084;8.794;2023-04-15T05:02:26;9.50;99.90
9847;DHT22;68671;50.084;8.794;2023-04-15T05:04:53;9.40;99.90
9847;DHT22;68671;50.084;8.794;2023-04-15T05:07:22;9.40;99.90
9847;DHT22;68671;50.084;8.794;2023-04-15T05:13:36;9.50;99.90
9847;DHT22;68671;50.084;8.794;2023-04-15T05:16:04;9.60;99.90
9847;DHT22;68671;50.084;8.794;2023-04-15T05:18:46;9.50;99.90
9847;DHT22;68671;50.084;8.794;2023-04-15T05:21:16;9.50;99.90
9847;DHT22;68671;50.084;8.794;2023-04-15T05:23:49;9.50;99.90
9847;DHT22;68671;50.084;8.794;2023-04-15T05:26:22;9.50;99.90
9847;DHT22;68671;50.084;8.794;2023-04-15T05:28:53;9.60;99.90
9847;DHT22;68671;50.084;8.794;2023-04-15T05:31:20;9.60;99.90
9847;DHT22;68671;50.084;8.794;2023-04-15T05:52:58;9.90;99.90
9847;DHT22;68671;50.084;8.794;2023-04-15T05:55:25;10.00;99.90
9847;DHT22;68671;50.084;8.794;2023-04-15T05:57:52;10.10;99.90
9847;DHT22;68671;50.084;8.794;2023-04-15T06:00:19;10.10;99.90
9847;DHT22;68671;50.084;8.794;2023-04-15T06:02:46;10.20;99.90
9847;DHT22;68671;50.084;8.794;2023-04-15T06:05:13;10.20;99.90
9847;DHT22;68671;50.084;8.794;2023-04-15T06:07:40;10.10;99.90
9847;DHT22;68671;50.084;8.794;2023-04-15T06:10:10;10.20;99.90
9847;DHT22;68671;50.084;8.794;2023-04-15T06:12:37;10.20;99.90
9847;DHT22;68671;50.084;8.794;2023-04-15T06:15:25;10.20;99.90
9847;DHT22;68671;50.084;8.794;2023-04-15T06:17:52;10.30;99.90
9847;DHT22;68671;50.084;8.794;2023-04-15T06:20:19;10.40;99.90
9847;DHT22;68671;50.084;8.794;2023-04-15T06:22:46;10.60;99.90
9847;DHT22;68671;50.084;8.794;2023-04-15T06:25:15;10.60;99.90
9847;DHT22;68671;50.084;8.794;2023-04-15T06:27:42;10.80;99.90
9847;DHT22;68671;50.084;8.794;2023-04-15T06:30:09;10.90;99.90
9847;DHT22;68671;50.084;8.794;2023-04-15T06:32:37;11.10;99.90
9847;DHT22;68671;50.084;8.794;2023-04-15T06:35:04;11.30;99.90
9847;DHT22;68671;50.084;8.794;2023-04-15T06:37:31;11.40;99.90
9847;DHT22;68671;50.084;8.794;2023-04-15T06:39:58;11.70;99.90
9847;DHT22;68671;50.084;8.794;2023-04-15T06:42:27;11.90;99.90
9847;DHT22;68671;50.084;8.794;2023-04-15T06:44:54;12.20;99.90
9847;DHT22;68671;50.084;8.794;2023-04-15T06:47:21;12.50;99.90
9847;DHT22;68671;50.084;8.794;2023-04-15T06:49:48;12.90;99.90
9847;DHT22;68671;50.084;8.794;2023-04-15T06:52:15;13.30;99.90
9847;DHT22;68671;50.084;8.794;2023-04-15T06:54:43;13.60;99.90
9847;DHT22;68671;50.084;8.794;2023-04-15T06:57:10;13.90;99.90
9847;DHT22;68671;50.084;8.794;2023-04-15T06:59:50;14.30;99.90
9847;DHT22;68671;50.084;8.794;2023-04-15T07:02:32;14.40;99.90
9847;DHT22;68671;50.084;8.794;2023-04-15T07:06:20;14.40;99.90
9847;DHT22;68671;50.084;8.794;2023-04-15T07:08:44;14.30;99.90
9847;DHT22;68671;50.084;8.794;2023-04-15T07:11:13;14.10;99.90
9847;DHT22;68671;50.084;8.794;2023-04-15T07:14:09;14.10;99.90
9847;DHT22;68671;50.084;8.794;2023-04-15T07:16:54;14.10;99.90
9847;DHT22;68671;50.084;8.794;2023-04-15T07:19:25;14.10;99.90
9847;DHT22;68671;50.084;8.794;2023-04-15T07:23:56;13.90;99.90
9847;DHT22;68671;50.084;8.794;2023-04-15T07:26:12;13.90;99.90
9847;DHT22;68671;50.084;8.794;2023-04-15T07:29:19;13.90;99.90
9847;DHT22;68671;50.084;8.794;2023-04-15T07:55:29;13.70;99.90
9847;DHT22;68671;50.084;8.794;2023-04-15T08:44:55;14.00;99.90
9847;DHT22;68671;50.084;8.794;2023-04-15T08:47:25;13.90;99.90
9847;DHT22;68671;50.084;8.794;2023-04-15T08:49:56;13.90;99.90
9847;DHT22;68671;50.084;8.794;2023-04-15T08:52:24;13.90;99.90
9847;DHT22;68671;50.084;8.794;2023-04-15T08:54:53;13.80;99.90
9847;DHT22;68671;50.084;8.794;2023-04-15T08:57:23;13.80;99.90
9847;DHT22;68671;50.084;8.794;2023-04-15T08:59:52;13.80;99.90
9847;DHT22;68671;50.084;8.794;2023-04-15T09:02:21;13.70;99.90
9847;DHT22;68671;50.084;8.794;2023-04-15T09:04:49;13.60;99.90
9847;DHT22;68671;50.084;8.794;2023-04-15T09:07:16;13.60;99.90
9847;DHT22;68671;50.084;8.794;2023-04-15T09:09:43;13.50;99.90
9847;DHT22;68671;50.084;8.794;2023-04-15T09:12:10;13.60;99.90
9847;DHT22;68671;50.084;8.794;2023-04-15T09:14:39;13.50;99.90
9847;DHT22;68671;50.084;8.794;2023-04-15T09:17:09;13.50;99.90
9847;DHT22;68671;50.084;8.794;2023-04-15T09:19:37;13.60;99.90
9847;DHT22;68671;50.084;8.794;2023-04-15T09:22:05;13.80;99.90
9847;DHT22;68671;50.084;8.794;2023-04-15T09:24:39;13.80;99.90
9847;DHT22;68671;50.084;8.794;2023-04-15T09:27:10;13.80;99.90
9847;DHT22;68671;50.084;8.794;2023-04-15T09:29:37;13.80;99.90
9847;DHT22;68671;50.084;8.794;2023-04-15T09:32:27;13.90;99.90
9847;DHT22;68671;50.084;8.794;2023-04-15T09:35:29;13.90;99.90
9847;DHT22;68671;50.084;8.794;2023-04-15T09:38:17;13.90;99.90
9847;DHT22;68671;50.084;8.794;2023-04-15T09:41:26;13.90;99.90
9847;DHT22;68671;50.084;8.794;2023-04-15T09:44:15;13.80;99.90
9847;DHT22;68671;50.084;8.794;2023-04-15T09:47:03;13.90;99.90
9847;DHT22;68671;50.084;8.794;2023-04-15T09:49:54;13.90;99.90
9847;DHT22;68671;50.084;8.794;2023-04-15T09:52:44;13.80;99.90
9847;DHT22;68671;50.084;8.794;2023-04-15T09:55:40;13.70;99.90
9847;DHT22;68671;50.084;8.794;2023-04-15T09:58:23;13.70;99.90
9847;DHT22;68671;50.084;8.794;2023-04-15T10:01:33;13.50;99.90
9847;DHT22;68671;50.084;8.794;2023-04-15T10:07:15;13.50;99.90
9847;DHT22;68671;50.084;8.794;2023-04-15T10:08:07;13.50;99.90
9847;DHT22;68671;50.084;8.794;2023-04-15T10:10:36;13.50;99.90
9847;DHT22;68671;50.084;8.794;2023-04-15T10:13:07;13.50;99.90
9847;DHT22;68671;50.084;8.794;2023-04-15T10:15:37;13.50;99.90
9847;DHT22;68671;50.084;8.794;2023-04-15T10:18:04;13.50;99.90
9847;DHT22;68671;50.084;8.794;2023-04-15T10:20:32;13.50;99.90
9847;DHT22;68671;50.084;8.794;2023-04-15T10:23:00;13.50;99.90
9847;DHT22;68671;50.084;8.794;2023-04-15T10:25:29;13.50;99.90
9847;DHT22;68671;50.084;8.794;2023-04-15T10:27:58;13.60;99.90
9847;DHT22;68671;50.084;8.794;2023-04-15T10:30:26;13.50;99.90
9847;DHT22;68671;50.084;8.794;2023-04-15T10:32:53;13.60;99.90
9847;DHT22;68671;50.084;8.794;2023-04-15T10:35:21;13.70;99.90
9847;DHT22;68671;50.084;8.794;2023-04-15T10:37:48;13.80;99.90
9847;DHT22;68671;50.084;8.794;2023-04-15T10:40:27;13.90;99.90
9847;DHT22;68671;50.084;8.794;2023-04-15T10:42:58;14.10;99.90
9847;DHT22;68671;50.084;8.794;2023-04-15T10:45:26;14.30;99.90
9847;DHT22;68671;50.084;8.794;2023-04-15T10:47:55;14.20;99.90
9847;DHT22;68671;50.084;8.794;2023-04-15T10:50:25;14.10;99.90
9847;DHT22;68671;50.084;8.794;2023-04-15T10:52:55;13.90;99.90
9847;DHT22;68671;50.084;8.794;2023-04-15T10:55:24;13.70;99.90
9847;DHT22;68671;50.084;8.794;2023-04-15T10:57:52;13.60;99.90
9847;DHT22;68671;50.084;8.794;2023-04-15T11:00:24;13.50;99.90
9847;DHT22;68671;50.084;8.794;2023-04-15T11:02:53;13.60;99.90
9847;DHT22;68671;50.084;8.794;2023-04-15T11:05:22;13.50;99.90
9847;DHT22;68671;50.084;8.794;2023-04-15T11:07:52;13.60;99.90
9847;DHT22;68671;50.084;8.794;2023-04-15T11:10:52;13.60;99.90
9847;DHT22;68671;50.084;8.794;2023-04-15T11:13:26;13.60;99.90
9847;DHT22;68671;50.084;8.794;2023-04-15T11:15:58;13.70;99.90
9847;DHT22;68671;50.084;8.794;2023-04-15T11:18:27;13.70;99.90
9847;DHT22;68671;50.084;8.794;2023-04-15T11:20:56;13.80;99.90
9847;DHT22;68671;50.084;8.794;2023-04-15T11:23:29;13.90;99.90
9847;DHT22;68671;50.084;8.794;2023-04-15T11:25:57;14.10;99.90
9847;DHT22;68671;50.084;8.794;2023-04-15T11:28:25;14.30;99.90
9847;DHT22;68671;50.084;8.794;2023-04-15T11:30:53;14.30;99.90
9847;DHT22;68671;50.084;8.794;2023-04-15T11:33:23;14.40;99.90
9847;DHT22;68671;50.084;8.794;2023-04-15T11:35:52;14.30;99.90
9847;DHT22;68671;50.084;8.794;2023-04-15T11:38:19;14.10;99.90
9847;DHT22;68671;50.084;8.794;2023-04-15T11:40:47;14.10;99.90
9847;DHT22;68671;50.084;8.794;2023-04-15T11:43:16;14.10;99.90
9847;DHT22;68671;50.084;8.794;2023-04-15T11:45:50;14.10;99.90
9847;DHT22;68671;50.084;8.794;2023-04-15T11:48:19;14.10;99.90
9847;DHT22;68671;50.084;8.794;2023-04-15T11:50:52;14.10;99.90
9847;DHT22;68671;50.084;8.794;2023-04-15T11:53:19;14.10;99.90
9847;DHT22;68671;50.084;8.794;2023-04-15T11:55:48;14.10;99.90
9847;DHT22;68671;50.084;8.794;2023-04-15T11:58:17;14.10;99.90
9847;DHT22;68671;50.084;8.794;2023-04-15T12:00:50;14.10;99.90
9847;DHT22;68671;50.084;8.794;2023-04-15T12:03:23;13.90;99.90
9847;DHT22;68671;50.084;8.794;2023-04-15T12:06:15;13.90;99.90
9847;DHT22;68671;50.084;8.794;2023-04-15T12:08:56;14.00;99.90
9847;DHT22;68671;50.084;8.794;2023-04-15T12:11:41;14.00;99.90
9847;DHT22;68671;50.084;8.794;2023-04-15T12:14:11;13.90;99.90
9847;DHT22;68671;50.084;8.794;2023-04-15T12:16:40;13.90;99.90
9847;DHT22;68671;50.084;8.794;2023-04-15T12:19:12;13.80;99.90
9847;DHT22;68671;50.084;8.794;2023-04-15T12:21:44;13.90;99.90
9847;DHT22;68671;50.084;8.794;2023-04-15T12:24:12;14.00;99.90
9847;DHT22;68671;50.084;8.794;2023-04-15T12:26:43;14.10;99.90
9847;DHT22;68671;50.084;8.794;2023-04-15T12:29:14;14.00;99.90
9847;DHT22;68671;50.084;8.794;2023-04-15T12:31:49;13.90;99.90
9847;DHT22;68671;50.084;8.794;2023-04-15T12:34:17;14.00;99.90
9847;DHT22;68671;50.084;8.794;2023-04-15T12:36:47;14.00;99.90
9847;DHT22;68671;50.084;8.794;2023-04-15T12:39:14;14.00;99.90
9847;DHT22;68671;50.084;8.794;2023-04-15T12:41:41;14.00;99.90
9847;DHT22;68671;50.084;8.794;2023-04-15T12:44:09;14.10;99.90
9847;DHT22;68671;50.084;8.794;2023-04-15T12:46:36;14.10;99.90
9847;DHT22;68671;50.084;8.794;2023-04-15T12:49:09;14.20;99.90
9847;DHT22;68671;50.084;8.794;2023-04-15T12:51:36;14.20;99.90
9847;DHT22;68671;50.084;8.794;2023-04-15T12:54:04;14.30;99.90
9847;DHT22;68671;50.084;8.794;2023-04-15T12:56:31;14.30;99.90
9847;DHT22;68671;50.084;8.794;2023-04-15T12:58:58;14.30;99.90
9847;DHT22;68671;50.084;8.794;2023-04-15T13:01:25;14.30;99.90
9847;DHT22;68671;50.084;8.794;2023-04-15T13:03:52;14.10;99.90
9847;DHT22;68671;50.084;8.794;2023-04-15T13:06:19;14.10;99.90
9847;DHT22;68671;50.084;8.794;2023-04-15T13:08:48;14.10;99.90
9847;DHT22;68671;50.084;8.794;2023-04-15T13:11:16;14.20;99.90
9847;DHT22;68671;50.084;8.794;2023-04-15T13:13:44;14.30;99.90
9847;DHT22;68671;50.084;8.794;2023-04-15T13:16:11;14.30;99.90
9847;DHT22;68671;50.084;8.794;2023-04-15T13:18:38;14.40;99.90
9847;DHT22;68671;50.084;8.794;2023-04-15T13:21:05;14.40;99.90
9847;DHT22;68671;50.084;8.794;2023-04-15T13:23:35;14.50;99.90
9847;DHT22;68671;50.084;8.794;2023-04-15T13:29:04;14.60;99.90
9847;DHT22;68671;50.084;8.794;2023-04-15T13:31:32;14.60;99.90
9847;DHT22;68671;50.084;8.794;2023-04-15T13:33:59;14.60;99.90
9847;DHT22;68671;50.084;8.794;2023-04-15T13:36:26;14.50;99.90
9847;DHT22;68671;50.084;8.794;2023-04-15T13:38:53;14.60;99.90
9847;DHT22;68671;50.084;8.794;2023-04-15T13:41:21;14.70;99.90
9847;DHT22;68671;50.084;8.794;2023-04-15T13:43:48;14.70;99.90
9847;DHT22;68671;50.084;8.794;2023-04-15T13:46:17;14.70;99.90
9847;DHT22;68671;50.084;8.794;2023-04-15T13:48:44;14.60;99.90
9847;DHT22;68671;50.084;8.794;2023-04-15T13:51:11;14.60;99.90
9847;DHT22;68671;50.084;8.794;2023-04-15T13:53:37;14.60;99.90
9847;DHT22;68671;50.084;8.794;2023-04-15T13:56:05;14.50;99.90
9847;DHT22;68671;50.084;8.794;2023-04-15T13:58:32;14.50;99.90
9847;DHT22;68671;50.084;8.794;2023-04-15T14:00:59;14.50;99.90
9847;DHT22;68671;50.084;8.794;2023-04-15T14:03:28;14.50;99.90
9847;DHT22;68671;50.084;8.794;2023-04-15T14:05:55;14.50;99.90
9847;DHT22;68671;50.084;8.794;2023-04-15T14:08:23;14.50;99.90
9847;DHT22;68671;50.084;8.794;2023-04-15T14:10:50;14.50;99.90
9847;DHT22;68671;50.084;8.794;2023-04-15T14:13:17;14.40;99.90
9847;DHT22;68671;50.084;8.794;2023-04-15T14:15:44;14.50;99.90
9847;DHT22;68671;50.084;8.794;2023-04-15T14:18:11;14.50;99.90
9847;DHT22;68671;50.084;8.794;2023-04-15T14:20:40;14.50;99.90
9847;DHT22;68671;50.084;8.794;2023-04-15T14:23:07;14.60;99.90
9847;DHT22;68671;50.084;8.794;2023-04-15T14:25:34;14.50;99.90
9847;DHT22;68671;50.084;8.794;2023-04-15T14:28:03;14.60;99.90
9847;DHT22;68671;50.084;8.794;2023-04-15T14:30:30;14.60;99.90
9847;DHT22;68671;50.084;8.794;2023-04-15T14:32:57;14.60;99.90
9847;DHT22;68671;50.084;8.794;2023-04-15T14:35:24;14.60;99.90
9847;DHT22;68671;50.084;8.794;2023-04-15T14:37:53;14.60;99.90
9847;DHT22;68671;50.084;8.794;2023-04-15T14:40:20;14.60;99.90
9847;DHT22;68671;50.084;8.794;2023-04-15T14:42:47;14.60;99.90
9847;DHT22;68671;50.084;8.794;2023-04-15T14:45:15;14.60;99.90
9847;DHT22;68671;50.084;8.794;2023-04-15T14:47:42;14.60;99.90
9847;DHT22;68671;50.084;8.794;2023-04-15T14:50:09;14.50;99.90
9847;DHT22;68671;50.084;8.794;2023-04-15T14:52:36;14.50;99.90
9847;DHT22;68671;50.084;8.794;2023-04-15T14:55:07;14.50;99.90
9847;DHT22;68671;50.084;8.794;2023-04-15T14:57:34;14.50;99.90
9847;DHT22;68671;50.084;8.794;2023-04-15T15:00:02;14.50;99.90
9847;DHT22;68671;50.084;8.794;2023-04-15T15:02:29;14.50;99.90
9847;DHT22;68671;50.084;8.794;2023-04-15T15:04:57;14.50;99.90
9847;DHT22;68671;50.084;8.794;2023-04-15T15:07:24;14.50;99.90
9847;DHT22;68671;50.084;8.794;2023-04-15T15:09:52;14.50;99.90
9847;DHT22;68671;50.084;8.794;2023-04-15T15:12:20;14.50;99.90
9847;DHT22;68671;50.084;8.794;2023-04-15T15:14:48;14.50;99.90
9847;DHT22;68671;50.084;8.794;2023-04-15T15:17:15;14.50;99.90
9847;DHT22;68671;50.084;8.794;2023-04-15T15:19:42;14.40;99.90
9847;DHT22;68671;50.084;8.794;2023-04-15T15:22:09;14.40;99.90
9847;DHT22;68671;50.084;8.794;2023-04-15T15:24:36;14.40;99.90
9847;DHT22;68671;50.084;8.794;2023-04-15T15:27:04;14.40;99.90
9847;DHT22;68671;50.084;8.794;2023-04-15T15:29:33;14.40;99.90
9847;DHT22;68671;50.084;8.794;2023-04-15T15:32:01;14.30;99.90
9847;DHT22;68671;50.084;8.794;2023-04-15T15:34:28;14.40;99.90
9847;DHT22;68671;50.084;8.794;2023-04-15T15:36:55;14.40;99.90
9847;DHT22;68671;50.084;8.794;2023-04-15T15:39:22;14.40;99.90
9847;DHT22;68671;50.084;8.794;2023-04-15T15:41:50;14.30;99.90
9847;DHT22;68671;50.084;8.794;2023-04-15T15:44:17;14.50;99.90
9847;DHT22;68671;50.084;8.794;2023-04-15T15:46:45;14.40;99.90
9847;DHT22;68671;50.084;8.794;2023-04-15T15:49:12;14.30;99.90
9847;DHT22;68671;50.084;8.794;2023-04-15T15:51:42;14.30;99.90
9847;DHT22;68671;50.084;8.794;2023-04-15T15:54:10;14.30;99.90
9847;DHT22;68671;50.084;8.794;2023-04-15T15:56:37;14.30;99.90
9847;DHT22;68671;50.084;8.794;2023-04-15T15:59:04;14.20;99.90
9847;DHT22;68671;50.084;8.794;2023-04-15T16:01:31;14.30;99.90
9847;DHT22;68671;50.084;8.794;2023-04-15T16:03:59;14.20;99.90
9847;DHT22;68671;50.084;8.794;2023-04-15T16:06:26;14.20;99.90
9847;DHT22;68671;50.084;8.794;2023-04-15T16:08:53;14.20;99.90
9847;DHT22;68671;50.084;8.794;2023-04-15T16:11:20;14.20;99.90
9847;DHT22;68671;50.084;8.794;2023-04-15T16:13:47;14.20;99.90
9847;DHT22;68671;50.084;8.794;2023-04-15T16:16:14;14.10;99.90
9847;DHT22;68671;50.084;8.794;2023-04-15T16:18:44;14.10;99.90
9847;DHT22;68671;50.084;8.794;2023-04-15T16:21:13;14.10;99.90
9847;DHT22;68671;50.084;8.794;2023-04-15T16:23:40;14.00;99.90
9847;DHT22;68671;50.084;8.794;2023-04-15T16:26:08;13.90;99.90
9847;DHT22;68671;50.084;8.794;2023-04-15T16:28:35;13.90;99.90
9847;DHT22;68671;50.084;8.794;2023-04-15T16:31:02;13.90;99.90
9847;DHT22;68671;50.084;8.794;2023-04-15T16:33:28;13.80;99.90
9847;DHT22;68671;50.084;8.794;2023-04-15T16:35:55;13.70;99.90
9847;DHT22;68671;50.084;8.794;2023-04-15T16:38:24;13.70;99.90
9847;DHT22;68671;50.084;8.794;2023-04-15T16:40:51;13.70;99.90
9847;DHT22;68671;50.084;8.794;2023-04-15T16:43:18;13.60;99.90
9847;DHT22;68671;50.084;8.794;2023-04-15T16:45:45;13.60;99.90
9847;DHT22;68671;50.084;8.794;2023-04-15T16:48:15;13.60;99.90
9847;DHT22;68671;50.084;8.794;2023-04-15T16:50:43;13.50;99.90
9847;DHT22;68671;50.084;8.794;2023-04-15T16:53:13;13.50;99.90
9847;DHT22;68671;50.084;8.794;2023-04-15T16:55:42;13.50;99.90
9847;DHT22;68671;50.084;8.794;2023-04-15T16:58:09;13.50;99.90
9847;DHT22;68671;50.084;8.794;2023-04-15T17:00:36;13.50;99.90
9847;DHT22;68671;50.084;8.794;2023-04-15T17:03:04;13.40;99.90
9847;DHT22;68671;50.084;8.794;2023-04-15T17:05:31;13.50;99.90
9847;DHT22;68671;50.084;8.794;2023-04-15T17:07:58;13.50;99.90
9847;DHT22;68671;50.084;8.794;2023-04-15T17:10:26;13.40;99.90
9847;DHT22;68671;50.084;8.794;2023-04-15T17:12:56;13.40;99.90
9847;DHT22;68671;50.084;8.794;2023-04-15T17:15:26;13.40;99.90
9847;DHT22;68671;50.084;8.794;2023-04-15T17:17:54;13.40;99.90
9847;DHT22;68671;50.084;8.794;2023-04-15T17:20:21;13.40;99.90
9847;DHT22;68671;50.084;8.794;2023-04-15T17:22:48;13.40;99.90
9847;DHT22;68671;50.084;8.794;2023-04-15T17:25:15;13.40;99.90
9847;DHT22;68671;50.084;8.794;2023-04-15T17:27:42;13.40;99.90
9847;DHT22;68671;50.084;8.794;2023-04-15T17:30:10;13.30;99.90
9847;DHT22;68671;50.084;8.794;2023-04-15T17:32:38;13.40;99.90
9847;DHT22;68671;50.084;8.794;2023-04-15T17:35:06;13.40;99.90
9847;DHT22;68671;50.084;8.794;2023-04-15T17:37:33;13.40;99.90
9847;DHT22;68671;50.084;8.794;2023-04-15T17:40:00;13.40;99.90
9847;DHT22;68671;50.084;8.794;2023-04-15T17:42:27;13.40;99.90
9847;DHT22;68671;50.084;8.794;2023-04-15T17:44:54;13.30;99.90
9847;DHT22;68671;50.084;8.794;2023-04-15T17:47:23;13.40;99.90
9847;DHT22;68671;50.084;8.794;2023-04-15T17:49:50;13.40;99.90
9847;DHT22;68671;50.084;8.794;2023-04-15T17:52:17;13.30;99.90
9847;DHT22;68671;50.084;8.794;2023-04-15T17:54:44;13.30;99.90
9847;DHT22;68671;50.084;8.794;2023-04-15T17:57:16;13.30;99.90
9847;DHT22;68671;50.084;8.794;2023-04-15T17:59:43;13.30;99.90
9847;DHT22;68671;50.084;8.794;2023-04-15T18:02:12;13.30;99.90
9847;DHT22;68671;50.084;8.794;2023-04-15T18:04:40;13.30;99.90
9847;DHT22;68671;50.084;8.794;2023-04-15T18:07:07;13.20;99.90
9847;DHT22;68671;50.084;8.794;2023-04-15T18:09:34;13.20;99.90
9847;DHT22;68671;50.084;8.794;2023-04-15T18:12:02;13.20;99.90